sensor_id;sensor_type;location;lat;lon;timestamp;P1;durP1;ratioP1;P2;durP2;ratioP2
80217;SDS011;70450;37.974;23.708;2024-02-23T00:02:07;24.00;;;14.43;;
80217;SDS011;70450;37.974;23.708;2024-02-23T00:04:33;26.77;;;14.63;;
80217;SDS011;70450;37.974;23.708;2024-02-23T00:06:59;22.85;;;14.10;;
80217;SDS011;70450;37.974;23.708;2024-02-23T00:09:28;28.77;;;15.57;;
80217;SDS011;70450;37.974;23.708;2024-02-23T00:11:54;25.38;;;15.50;;
80217;SDS011;70450;37.974;23.708;2024-02-23T00:14:21;28.45;;;15.75;;
80217;SDS011;70450;37.974;23.708;2024-02-23T00:16:47;35.38;;;18.35;;
80217;SDS011;70450;37.974;23.708;2024-02-23T00:19:14;28.05;;;16.27;;
80217;SDS011;70450;37.974;23.708;2024-02-23T00:21:43;35.63;;;18.48;;
80217;SDS011;70450;37.974;23.708;2024-02-23T00:24:13;27.67;;;17.30;;
80217;SDS011;70450;37.974;23.708;2024-02-23T00:26:42;32.42;;;17.27;;
80217;SDS011;70450;37.974;23.708;2024-02-23T00:29:08;27.92;;;16.52;;
80217;SDS011;70450;37.974;23.708;2024-02-23T00:31:37;32.00;;;17.88;;
80217;SDS011;70450;37.974;23.708;2024-02-23T00:34:06;40.33;;;23.65;;
80217;SDS011;70450;37.974;23.708;2024-02-23T00:36:38;28.77;;;17.60;;
80217;SDS011;70450;37.974;23.708;2024-02-23T00:39:07;29.70;;;17.15;;
80217;SDS011;70450;37.974;23.708;2024-02-23T00:41:36;25.95;;;15.88;;
80217;SDS011;70450;37.974;23.708;2024-02-23T00:44:02;33.20;;;17.73;;
80217;SDS011;70450;37.974;23.708;2024-02-23T00:46:32;33.30;;;17.45;;
80217;SDS011;70450;37.974;23.708;2024-02-23T00:48:58;31.80;;;18.65;;
80217;SDS011;70450;37.974;23.708;2024-02-23T00:51:27;29.63;;;16.58;;
80217;SDS011;70450;37.974;23.708;2024-02-23T00:53:54;37.42;;;22.13;;
80217;SDS011;70450;37.974;23.708;2024-02-23T00:56:20;36.20;;;21.15;;
80217;SDS011;70450;37.974;23.708;2024-02-23T00:58:46;34.67;;;20.15;;
80217;SDS011;70450;37.974;23.708;2024-02-23T01:01:13;36.53;;;20.40;;
80217;SDS011;70450;37.974;23.708;2024-02-23T01:03:39;32.05;;;19.17;;
80217;SDS011;70450;37.974;23.708;2024-02-23T01:06:05;35.17;;;19.08;;
80217;SDS011;70450;37.974;23.708;2024-02-23T01:08:34;35.65;;;19.40;;
80217;SDS011;70450;37.974;23.708;2024-02-23T01:11:01;34.78;;;18.25;;
80217;SDS011;70450;37.974;23.708;2024-02-23T01:13:27;32.33;;;18.02;;
80217;SDS011;70450;37.974;23.708;2024-02-23T01:15:54;30.25;;;17.42;;
80217;SDS011;70450;37.974;23.708;2024-02-23T01:18:20;31.50;;;17.35;;
80217;SDS011;70450;37.974;23.708;2024-02-23T01:20:46;39.33;;;21.92;;
80217;SDS011;70450;37.974;23.708;2024-02-23T01:23:12;33.95;;;18.98;;
80217;SDS011;70450;37.974;23.708;2024-02-23T01:25:39;34.35;;;18.63;;
80217;SDS011;70450;37.974;23.708;2024-02-23T01:28:06;31.98;;;18.35;;
80217;SDS011;70450;37.974;23.708;2024-02-23T01:30:32;33.30;;;18.35;;
80217;SDS011;70450;37.974;23.708;2024-02-23T01:32:58;32.45;;;19.10;;
80217;SDS011;70450;37.974;23.708;2024-02-23T01:35:26;35.80;;;17.55;;
80217;SDS011;70450;37.974;23.708;2024-02-23T01:37:53;32.80;;;16.70;;
80217;SDS011;70450;37.974;23.708;2024-02-23T01:40:19;31.15;;;18.55;;
80217;SDS011;70450;37.974;23.708;2024-02-23T01:42:45;34.17;;;18.33;;
80217;SDS011;70450;37.974;23.708;2024-02-23T01:45:12;33.63;;;18.58;;
80217;SDS011;70450;37.974;23.708;2024-02-23T01:47:38;30.50;;;17.55;;
80217;SDS011;70450;37.974;23.708;2024-02-23T01:50:04;32.80;;;18.50;;
80217;SDS011;70450;37.974;23.708;2024-02-23T01:52:33;29.60;;;18.08;;
80217;SDS011;70450;37.974;23.708;2024-02-23T01:55:00;34.47;;;18.80;;
80217;SDS011;70450;37.974;23.708;2024-02-23T01:57:27;30.70;;;18.73;;
80217;SDS011;70450;37.974;23.708;2024-02-23T01:59:54;33.42;;;18.17;;
80217;SDS011;70450;37.974;23.708;2024-02-23T02:02:21;34.50;;;18.85;;
80217;SDS011;70450;37.974;23.708;2024-02-23T02:04:49;40.78;;;19.05;;
80217;SDS011;70450;37.974;23.708;2024-02-23T02:07:16;32.40;;;19.63;;
80217;SDS011;70450;37.974;23.708;2024-02-23T02:09:43;30.23;;;18.17;;
80217;SDS011;70450;37.974;23.708;2024-02-23T02:12:10;38.05;;;18.88;;
80217;SDS011;70450;37.974;23.708;2024-02-23T02:14:36;30.85;;;17.63;;
80217;SDS011;70450;37.974;23.708;2024-02-23T02:17:02;28.95;;;16.65;;
80217;SDS011;70450;37.974;23.708;2024-02-23T02:19:28;32.05;;;17.30;;
80217;SDS011;70450;37.974;23.708;2024-02-23T02:21:55;30.08;;;18.67;;
80217;SDS011;70450;37.974;23.708;2024-02-23T02:24:22;30.33;;;18.23;;
80217;SDS011;70450;37.974;23.708;2024-02-23T02:26:48;32.92;;;18.00;;
80217;SDS011;70450;37.974;23.708;2024-02-23T02:29:17;31.88;;;17.33;;
80217;SDS011;70450;37.974;23.708;2024-02-23T02:31:43;29.48;;;17.50;;
80217;SDS011;70450;37.974;23.708;2024-02-23T02:34:09;34.50;;;16.95;;
80217;SDS011;70450;37.974;23.708;2024-02-23T02:36:38;27.88;;;15.70;;
80217;SDS011;70450;37.974;23.708;2024-02-23T02:39:04;30.92;;;16.25;;
80217;SDS011;70450;37.974;23.708;2024-02-23T02:41:32;25.02;;;14.70;;
80217;SDS011;70450;37.974;23.708;2024-02-23T02:43:59;29.27;;;16.30;;
80217;SDS011;70450;37.974;23.708;2024-02-23T02:46:25;25.35;;;14.50;;
80217;SDS011;70450;37.974;23.708;2024-02-23T02:48:51;25.90;;;15.05;;
80217;SDS011;70450;37.974;23.708;2024-02-23T02:51:17;24.08;;;15.98;;
80217;SDS011;70450;37.974;23.708;2024-02-23T02:53:44;24.77;;;13.63;;
80217;SDS011;70450;37.974;23.708;2024-02-23T02:56:12;24.30;;;13.55;;
80217;SDS011;70450;37.974;23.708;2024-02-23T02:58:39;23.20;;;13.63;;
80217;SDS011;70450;37.974;23.708;2024-02-23T03:01:05;26.35;;;15.00;;
80217;SDS011;70450;37.974;23.708;2024-02-23T03:03:31;25.80;;;15.20;;
80217;SDS011;70450;37.974;23.708;2024-02-23T03:05:58;26.90;;;15.25;;
80217;SDS011;70450;37.974;23.708;2024-02-23T03:08:25;27.20;;;16.30;;
80217;SDS011;70450;37.974;23.708;2024-02-23T03:10:53;24.50;;;14.93;;
80217;SDS011;70450;37.974;23.708;2024-02-23T03:13:20;30.92;;;17.90;;
80217;SDS011;70450;37.974;23.708;2024-02-23T03:15:46;33.25;;;17.20;;
80217;SDS011;70450;37.974;23.708;2024-02-23T03:18:12;28.63;;;16.90;;
80217;SDS011;70450;37.974;23.708;2024-02-23T03:20:41;30.27;;;17.83;;
80217;SDS011;70450;37.974;23.708;2024-02-23T03:23:07;29.17;;;16.55;;
80217;SDS011;70450;37.974;23.708;2024-02-23T03:25:34;30.00;;;16.27;;
80217;SDS011;70450;37.974;23.708;2024-02-23T03:28:02;31.98;;;17.00;;
80217;SDS011;70450;37.974;23.708;2024-02-23T03:30:29;33.95;;;19.67;;
80217;SDS011;70450;37.974;23.708;2024-02-23T03:32:55;28.38;;;18.52;;
80217;SDS011;70450;37.974;23.708;2024-02-23T03:35:21;29.02;;;16.05;;
80217;SDS011;70450;37.974;23.708;2024-02-23T03:37:48;31.95;;;17.63;;
80217;SDS011;70450;37.974;23.708;2024-02-23T03:40:14;29.58;;;17.17;;
80217;SDS011;70450;37.974;23.708;2024-02-23T03:42:43;30.38;;;17.10;;
80217;SDS011;70450;37.974;23.708;2024-02-23T03:45:09;31.55;;;16.55;;
80217;SDS011;70450;37.974;23.708;2024-02-23T03:47:38;26.63;;;15.82;;
80217;SDS011;70450;37.974;23.708;2024-02-23T03:50:06;28.83;;;14.95;;
80217;SDS011;70450;37.974;23.708;2024-02-23T03:52:33;22.63;;;13.05;;
80217;SDS011;70450;37.974;23.708;2024-02-23T03:54:59;25.63;;;14.73;;
80217;SDS011;70450;37.974;23.708;2024-02-23T03:57:26;22.48;;;13.43;;
80217;SDS011;70450;37.974;23.708;2024-02-23T03:59:52;24.25;;;14.27;;
80217;SDS011;70450;37.974;23.708;2024-02-23T04:02:21;28.90;;;13.98;;
80217;SDS011;70450;37.974;23.708;2024-02-23T04:04:48;31.05;;;16.10;;
80217;SDS011;70450;37.974;23.708;2024-02-23T04:07:14;30.60;;;15.05;;
80217;SDS011;70450;37.974;23.708;2024-02-23T04:09:41;28.80;;;16.02;;
80217;SDS011;70450;37.974;23.708;2024-02-23T04:12:07;30.15;;;17.38;;
80217;SDS011;70450;37.974;23.708;2024-02-23T04:14:33;35.47;;;17.80;;
80217;SDS011;70450;37.974;23.708;2024-02-23T04:17:04;30.50;;;17.23;;
80217;SDS011;70450;37.974;23.708;2024-02-23T04:19:31;30.67;;;18.08;;
80217;SDS011;70450;37.974;23.708;2024-02-23T04:22:00;35.15;;;17.85;;
80217;SDS011;70450;37.974;23.708;2024-02-23T04:24:26;36.13;;;21.55;;
80217;SDS011;70450;37.974;23.708;2024-02-23T04:26:52;31.10;;;17.70;;
80217;SDS011;70450;37.974;23.708;2024-02-23T04:29:19;35.50;;;17.90;;
80217;SDS011;70450;37.974;23.708;2024-02-23T04:31:45;33.70;;;17.15;;
80217;SDS011;70450;37.974;23.708;2024-02-23T04:34:11;45.00;;;20.13;;
80217;SDS011;70450;37.974;23.708;2024-02-23T04:36:37;35.13;;;18.90;;
80217;SDS011;70450;37.974;23.708;2024-02-23T04:39:04;52.05;;;21.33;;
80217;SDS011;70450;37.974;23.708;2024-02-23T04:41:30;41.25;;;19.50;;
80217;SDS011;70450;37.974;23.708;2024-02-23T04:43:56;38.22;;;22.00;;
80217;SDS011;70450;37.974;23.708;2024-02-23T04:46:25;37.05;;;20.70;;
80217;SDS011;70450;37.974;23.708;2024-02-23T04:48:52;37.92;;;20.63;;
80217;SDS011;70450;37.974;23.708;2024-02-23T04:51:18;40.60;;;20.00;;
80217;SDS011;70450;37.974;23.708;2024-02-23T04:53:45;36.58;;;19.63;;
80217;SDS011;70450;37.974;23.708;2024-02-23T04:56:12;38.75;;;21.13;;
80217;SDS011;70450;37.974;23.708;2024-02-23T04:58:38;39.65;;;20.80;;
80217;SDS011;70450;37.974;23.708;2024-02-23T05:01:06;39.45;;;21.42;;
80217;SDS011;70450;37.974;23.708;2024-02-23T05:03:33;44.65;;;23.48;;
80217;SDS011;70450;37.974;23.708;2024-02-23T05:05:59;41.85;;;22.17;;
80217;SDS011;70450;37.974;23.708;2024-02-23T05:08:25;49.00;;;24.10;;
80217;SDS011;70450;37.974;23.708;2024-02-23T05:10:53;48.72;;;25.63;;
80217;SDS011;70450;37.974;23.708;2024-02-23T05:13:19;50.33;;;25.70;;
80217;SDS011;70450;37.974;23.708;2024-02-23T05:15:45;54.03;;;25.65;;
80217;SDS011;70450;37.974;23.708;2024-02-23T05:18:11;40.83;;;22.35;;
80217;SDS011;70450;37.974;23.708;2024-02-23T05:20:38;47.40;;;22.98;;
80217;SDS011;70450;37.974;23.708;2024-02-23T05:23:04;42.80;;;23.50;;
80217;SDS011;70450;37.974;23.708;2024-02-23T05:25:30;49.03;;;23.48;;
80217;SDS011;70450;37.974;23.708;2024-02-23T05:27:57;60.20;;;25.00;;
80217;SDS011;70450;37.974;23.708;2024-02-23T05:30:23;43.75;;;22.52;;
80217;SDS011;70450;37.974;23.708;2024-02-23T05:32:50;53.45;;;24.30;;
80217;SDS011;70450;37.974;23.708;2024-02-23T05:35:16;46.67;;;23.52;;
80217;SDS011;70450;37.974;23.708;2024-02-23T05:37:42;56.58;;;27.70;;
80217;SDS011;70450;37.974;23.708;2024-02-23T05:40:08;44.10;;;22.65;;
80217;SDS011;70450;37.974;23.708;2024-02-23T05:42:38;42.22;;;22.75;;
80217;SDS011;70450;37.974;23.708;2024-02-23T05:45:05;54.42;;;24.33;;
80217;SDS011;70450;37.974;23.708;2024-02-23T05:47:34;61.97;;;28.17;;
80217;SDS011;70450;37.974;23.708;2024-02-23T05:50:04;48.70;;;24.83;;
80217;SDS011;70450;37.974;23.708;2024-02-23T05:52:33;38.33;;;20.27;;
80217;SDS011;70450;37.974;23.708;2024-02-23T05:55:00;33.92;;;15.93;;
80217;SDS011;70450;37.974;23.708;2024-02-23T05:57:26;29.45;;;17.17;;
80217;SDS011;70450;37.974;23.708;2024-02-23T05:59:53;35.05;;;16.80;;
80217;SDS011;70450;37.974;23.708;2024-02-23T06:02:21;35.60;;;19.40;;
80217;SDS011;70450;37.974;23.708;2024-02-23T06:04:47;29.30;;;16.77;;
80217;SDS011;70450;37.974;23.708;2024-02-23T06:07:13;36.88;;;19.30;;
80217;SDS011;70450;37.974;23.708;2024-02-23T06:09:43;30.58;;;18.42;;
80217;SDS011;70450;37.974;23.708;2024-02-23T06:12:09;32.63;;;18.08;;
80217;SDS011;70450;37.974;23.708;2024-02-23T06:14:36;36.58;;;20.77;;
80217;SDS011;70450;37.974;23.708;2024-02-23T06:17:02;41.15;;;18.17;;
80217;SDS011;70450;37.974;23.708;2024-02-23T06:19:29;36.10;;;18.38;;
80217;SDS011;70450;37.974;23.708;2024-02-23T06:21:55;35.20;;;19.33;;
80217;SDS011;70450;37.974;23.708;2024-02-23T06:24:21;29.88;;;17.30;;
80217;SDS011;70450;37.974;23.708;2024-02-23T06:26:48;27.80;;;16.42;;
80217;SDS011;70450;37.974;23.708;2024-02-23T06:29:14;35.47;;;18.17;;
80217;SDS011;70450;37.974;23.708;2024-02-23T06:31:41;33.78;;;18.20;;
80217;SDS011;70450;37.974;23.708;2024-02-23T06:34:07;28.88;;;17.40;;
80217;SDS011;70450;37.974;23.708;2024-02-23T06:36:34;30.67;;;17.95;;
80217;SDS011;70450;37.974;23.708;2024-02-23T06:39:00;27.35;;;16.27;;
80217;SDS011;70450;37.974;23.708;2024-02-23T06:41:26;34.17;;;18.02;;
80217;SDS011;70450;37.974;23.708;2024-02-23T06:43:52;29.27;;;17.17;;
80217;SDS011;70450;37.974;23.708;2024-02-23T06:46:19;31.17;;;16.10;;
80217;SDS011;70450;37.974;23.708;2024-02-23T06:48:46;25.98;;;15.63;;
80217;SDS011;70450;37.974;23.708;2024-02-23T06:51:12;33.10;;;16.63;;
80217;SDS011;70450;37.974;23.708;2024-02-23T06:53:39;29.83;;;17.02;;
80217;SDS011;70450;37.974;23.708;2024-02-23T06:56:06;32.15;;;17.13;;
80217;SDS011;70450;37.974;23.708;2024-02-23T06:58:32;33.05;;;17.52;;
80217;SDS011;70450;37.974;23.708;2024-02-23T07:00:58;42.00;;;21.73;;
80217;SDS011;70450;37.974;23.708;2024-02-23T07:03:25;36.28;;;20.20;;
80217;SDS011;70450;37.974;23.708;2024-02-23T07:05:52;42.75;;;19.90;;
80217;SDS011;70450;37.974;23.708;2024-02-23T07:08:18;36.83;;;20.92;;
80217;SDS011;70450;37.974;23.708;2024-02-23T07:10:44;38.30;;;21.10;;
80217;SDS011;70450;37.974;23.708;2024-02-23T07:13:10;41.67;;;21.05;;
80217;SDS011;70450;37.974;23.708;2024-02-23T07:15:37;34.75;;;19.05;;
80217;SDS011;70450;37.974;23.708;2024-02-23T07:18:03;35.13;;;20.38;;
80217;SDS011;70450;37.974;23.708;2024-02-23T07:20:30;45.13;;;20.27;;
80217;SDS011;70450;37.974;23.708;2024-02-23T07:22:56;35.92;;;20.58;;
80217;SDS011;70450;37.974;23.708;2024-02-23T07:25:22;32.88;;;17.35;;
80217;SDS011;70450;37.974;23.708;2024-02-23T07:27:48;32.17;;;17.30;;
80217;SDS011;70450;37.974;23.708;2024-02-23T07:30:15;30.10;;;16.48;;
80217;SDS011;70450;37.974;23.708;2024-02-23T07:32:44;35.80;;;18.90;;
80217;SDS011;70450;37.974;23.708;2024-02-23T07:35:12;35.53;;;17.85;;
80217;SDS011;70450;37.974;23.708;2024-02-23T07:37:38;41.53;;;21.35;;
80217;SDS011;70450;37.974;23.708;2024-02-23T07:40:05;46.47;;;22.30;;
80217;SDS011;70450;37.974;23.708;2024-02-23T07:42:32;41.05;;;22.60;;
80217;SDS011;70450;37.974;23.708;2024-02-23T07:44:58;39.30;;;19.25;;
80217;SDS011;70450;37.974;23.708;2024-02-23T07:47:24;29.80;;;18.33;;
80217;SDS011;70450;37.974;23.708;2024-02-23T07:49:52;36.78;;;20.95;;
80217;SDS011;70450;37.974;23.708;2024-02-23T07:52:19;40.88;;;19.40;;
80217;SDS011;70450;37.974;23.708;2024-02-23T07:54:45;29.85;;;17.83;;
80217;SDS011;70450;37.974;23.708;2024-02-23T07:57:11;47.40;;;19.83;;
80217;SDS011;70450;37.974;23.708;2024-02-23T07:59:39;33.65;;;17.95;;
80217;SDS011;70450;37.974;23.708;2024-02-23T08:02:05;36.05;;;17.83;;
80217;SDS011;70450;37.974;23.708;2024-02-23T08:04:31;34.00;;;18.15;;
80217;SDS011;70450;37.974;23.708;2024-02-23T08:07:00;29.88;;;16.48;;
80217;SDS011;70450;37.974;23.708;2024-02-23T08:09:26;33.60;;;17.25;;
80217;SDS011;70450;37.974;23.708;2024-02-23T08:11:52;32.05;;;17.40;;
80217;SDS011;70450;37.974;23.708;2024-02-23T08:14:18;39.55;;;20.42;;
80217;SDS011;70450;37.974;23.708;2024-02-23T08:16:45;61.35;;;27.98;;
80217;SDS011;70450;37.974;23.708;2024-02-23T08:19:11;32.22;;;16.58;;
80217;SDS011;70450;37.974;23.708;2024-02-23T08:21:37;25.80;;;13.63;;
80217;SDS011;70450;37.974;23.708;2024-02-23T08:24:04;24.83;;;14.77;;
80217;SDS011;70450;37.974;23.708;2024-02-23T08:26:31;22.42;;;14.38;;
80217;SDS011;70450;37.974;23.708;2024-02-23T08:28:57;32.53;;;19.33;;
80217;SDS011;70450;37.974;23.708;2024-02-23T08:31:24;28.63;;;17.15;;
80217;SDS011;70450;37.974;23.708;2024-02-23T08:33:50;29.55;;;16.20;;
80217;SDS011;70450;37.974;23.708;2024-02-23T08:36:19;31.58;;;17.65;;
80217;SDS011;70450;37.974;23.708;2024-02-23T08:38:45;33.80;;;17.98;;
80217;SDS011;70450;37.974;23.708;2024-02-23T08:41:11;28.90;;;15.43;;
80217;SDS011;70450;37.974;23.708;2024-02-23T08:43:37;29.17;;;16.38;;
80217;SDS011;70450;37.974;23.708;2024-02-23T08:46:04;30.60;;;16.55;;
80217;SDS011;70450;37.974;23.708;2024-02-23T08:48:30;28.73;;;15.80;;
80217;SDS011;70450;37.974;23.708;2024-02-23T08:50:56;26.58;;;17.15;;
80217;SDS011;70450;37.974;23.708;2024-02-23T08:53:23;41.08;;;18.58;;
80217;SDS011;70450;37.974;23.708;2024-02-23T08:55:49;29.45;;;14.80;;
80217;SDS011;70450;37.974;23.708;2024-02-23T08:58:15;25.42;;;15.98;;
80217;SDS011;70450;37.974;23.708;2024-02-23T09:00:41;28.83;;;18.45;;
80217;SDS011;70450;37.974;23.708;2024-02-23T09:03:07;28.05;;;18.58;;
80217;SDS011;70450;37.974;23.708;2024-02-23T09:05:33;33.25;;;17.48;;
80217;SDS011;70450;37.974;23.708;2024-02-23T09:08:02;29.55;;;16.48;;
80217;SDS011;70450;37.974;23.708;2024-02-23T09:10:28;30.08;;;16.85;;
80217;SDS011;70450;37.974;23.708;2024-02-23T09:12:54;27.30;;;17.02;;
80217;SDS011;70450;37.974;23.708;2024-02-23T09:15:21;32.78;;;17.85;;
80217;SDS011;70450;37.974;23.708;2024-02-23T09:17:47;23.50;;;16.60;;
80217;SDS011;70450;37.974;23.708;2024-02-23T09:20:13;25.85;;;16.83;;
80217;SDS011;70450;37.974;23.708;2024-02-23T09:22:39;25.17;;;16.25;;
80217;SDS011;70450;37.974;23.708;2024-02-23T09:25:06;30.08;;;18.90;;
80217;SDS011;70450;37.974;23.708;2024-02-23T09:27:34;27.55;;;18.10;;
80217;SDS011;70450;37.974;23.708;2024-02-23T09:30:12;34.88;;;16.75;;
80217;SDS011;70450;37.974;23.708;2024-02-23T09:32:39;35.03;;;21.17;;
80217;SDS011;70450;37.974;23.708;2024-02-23T09:35:05;30.80;;;17.90;;
80217;SDS011;70450;37.974;23.708;2024-02-23T09:37:32;40.30;;;27.70;;
80217;SDS011;70450;37.974;23.708;2024-02-23T09:39:58;29.30;;;17.90;;
80217;SDS011;70450;37.974;23.708;2024-02-23T09:42:24;29.63;;;15.60;;
80217;SDS011;70450;37.974;23.708;2024-02-23T09:44:57;29.17;;;16.25;;
80217;SDS011;70450;37.974;23.708;2024-02-23T09:47:28;27.35;;;15.75;;
80217;SDS011;70450;37.974;23.708;2024-02-23T09:49:54;36.25;;;20.48;;
80217;SDS011;70450;37.974;23.708;2024-02-23T09:52:21;27.90;;;18.40;;
80217;SDS011;70450;37.974;23.708;2024-02-23T09:54:48;33.95;;;17.05;;
80217;SDS011;70450;37.974;23.708;2024-02-23T09:57:15;28.80;;;16.75;;
80217;SDS011;70450;37.974;23.708;2024-02-23T09:59:44;22.98;;;16.88;;
80217;SDS011;70450;37.974;23.708;2024-02-23T10:02:14;25.48;;;15.90;;
80217;SDS011;70450;37.974;23.708;2024-02-23T10:04:42;25.83;;;14.98;;
80217;SDS011;70450;37.974;23.708;2024-02-23T10:07:09;22.50;;;16.08;;
80217;SDS011;70450;37.974;23.708;2024-02-23T10:09:36;22.98;;;15.40;;
80217;SDS011;70450;37.974;23.708;2024-02-23T10:12:02;20.75;;;14.15;;
80217;SDS011;70450;37.974;23.708;2024-02-23T10:14:29;26.38;;;18.08;;
80217;SDS011;70450;37.974;23.708;2024-02-23T10:16:55;23.67;;;17.30;;
80217;SDS011;70450;37.974;23.708;2024-02-23T10:19:22;27.08;;;15.38;;
80217;SDS011;70450;37.974;23.708;2024-02-23T10:21:54;21.60;;;14.77;;
80217;SDS011;70450;37.974;23.708;2024-02-23T10:24:20;30.60;;;15.10;;
80217;SDS011;70450;37.974;23.708;2024-02-23T10:26:50;23.65;;;14.73;;
80217;SDS011;70450;37.974;23.708;2024-02-23T10:29:17;29.77;;;17.80;;
80217;SDS011;70450;37.974;23.708;2024-02-23T10:31:44;36.75;;;22.90;;
80217;SDS011;70450;37.974;23.708;2024-02-23T10:34:15;33.38;;;16.65;;
80217;SDS011;70450;37.974;23.708;2024-02-23T10:36:46;20.92;;;15.52;;
80217;SDS011;70450;37.974;23.708;2024-02-23T10:39:17;23.33;;;15.32;;
80217;SDS011;70450;37.974;23.708;2024-02-23T10:42:06;24.88;;;15.73;;
80217;SDS011;70450;37.974;23.708;2024-02-23T10:44:34;22.00;;;14.60;;
80217;SDS011;70450;37.974;23.708;2024-02-23T10:47:02;17.60;;;11.73;;
80217;SDS011;70450;37.974;23.708;2024-02-23T10:49:29;19.83;;;12.90;;
80217;SDS011;70450;37.974;23.708;2024-02-23T10:51:56;20.17;;;14.48;;
80217;SDS011;70450;37.974;23.708;2024-02-23T10:54:23;17.15;;;13.55;;
80217;SDS011;70450;37.974;23.708;2024-02-23T10:56:50;25.58;;;15.43;;
80217;SDS011;70450;37.974;23.708;2024-02-23T10:59:17;17.10;;;13.20;;
80217;SDS011;70450;37.974;23.708;2024-02-23T11:01:47;21.15;;;13.48;;
80217;SDS011;70450;37.974;23.708;2024-02-23T11:04:18;28.50;;;20.83;;
80217;SDS011;70450;37.974;23.708;2024-02-23T11:06:53;14.98;;;12.60;;
80217;SDS011;70450;37.974;23.708;2024-02-23T11:09:24;20.27;;;12.75;;
80217;SDS011;70450;37.974;23.708;2024-02-23T11:11:54;17.88;;;13.40;;
80217;SDS011;70450;37.974;23.708;2024-02-23T11:14:36;20.33;;;13.82;;
80217;SDS011;70450;37.974;23.708;2024-02-23T11:17:05;16.35;;;11.13;;
80217;SDS011;70450;37.974;23.708;2024-02-23T11:19:32;13.82;;;11.25;;
80217;SDS011;70450;37.974;23.708;2024-02-23T11:22:00;13.63;;;10.30;;
80217;SDS011;70450;37.974;23.708;2024-02-23T11:24:30;13.27;;;11.77;;
80217;SDS011;70450;37.974;23.708;2024-02-23T11:27:00;15.30;;;12.80;;
80217;SDS011;70450;37.974;23.708;2024-02-23T11:29:33;16.60;;;10.98;;
80217;SDS011;70450;37.974;23.708;2024-02-23T11:32:02;19.48;;;12.15;;
80217;SDS011;70450;37.974;23.708;2024-02-23T11:34:29;19.05;;;13.38;;
80217;SDS011;70450;37.974;23.708;2024-02-23T11:36:56;17.02;;;13.48;;
80217;SDS011;70450;37.974;23.708;2024-02-23T11:39:25;18.48;;;12.25;;
80217;SDS011;70450;37.974;23.708;2024-02-23T11:41:52;15.90;;;13.18;;
80217;SDS011;70450;37.974;23.708;2024-02-23T11:44:18;18.38;;;12.02;;
80217;SDS011;70450;37.974;23.708;2024-02-23T11:46:46;15.48;;;12.63;;
80217;SDS011;70450;37.974;23.708;2024-02-23T11:49:13;13.82;;;11.95;;
80217;SDS011;70450;37.974;23.708;2024-02-23T11:51:41;12.68;;;11.38;;
80217;SDS011;70450;37.974;23.708;2024-02-23T11:54:10;25.98;;;17.75;;
80217;SDS011;70450;37.974;23.708;2024-02-23T11:56:37;17.02;;;12.38;;
80217;SDS011;70450;37.974;23.708;2024-02-23T11:59:03;12.93;;;11.65;;
80217;SDS011;70450;37.974;23.708;2024-02-23T12:01:30;16.38;;;12.18;;
80217;SDS011;70450;37.974;23.708;2024-02-23T12:03:58;15.38;;;12.57;;
80217;SDS011;70450;37.974;23.708;2024-02-23T12:06:25;14.77;;;12.18;;
80217;SDS011;70450;37.974;23.708;2024-02-23T12:08:54;14.07;;;12.07;;
80217;SDS011;70450;37.974;23.708;2024-02-23T12:11:21;22.02;;;14.00;;
80217;SDS011;70450;37.974;23.708;2024-02-23T12:13:47;18.17;;;13.15;;
80217;SDS011;70450;37.974;23.708;2024-02-23T12:16:13;12.27;;;11.02;;
80217;SDS011;70450;37.974;23.708;2024-02-23T12:18:40;13.25;;;11.45;;
80217;SDS011;70450;37.974;23.708;2024-02-23T12:21:06;16.63;;;12.50;;
80217;SDS011;70450;37.974;23.708;2024-02-23T12:23:38;13.38;;;11.10;;
80217;SDS011;70450;37.974;23.708;2024-02-23T12:26:08;11.52;;;10.38;;
80217;SDS011;70450;37.974;23.708;2024-02-23T12:28:36;12.43;;;11.23;;
80217;SDS011;70450;37.974;23.708;2024-02-23T12:31:03;19.65;;;10.90;;
80217;SDS011;70450;37.974;23.708;2024-02-23T12:33:34;16.17;;;11.57;;
80217;SDS011;70450;37.974;23.708;2024-02-23T12:36:02;13.70;;;10.57;;
80217;SDS011;70450;37.974;23.708;2024-02-23T12:38:30;16.35;;;10.48;;
80217;SDS011;70450;37.974;23.708;2024-02-23T12:40:56;11.43;;;9.85;;
80217;SDS011;70450;37.974;23.708;2024-02-23T12:43:23;11.57;;;10.35;;
80217;SDS011;70450;37.974;23.708;2024-02-23T12:45:50;11.27;;;10.18;;
80217;SDS011;70450;37.974;23.708;2024-02-23T12:48:18;11.55;;;9.80;;
80217;SDS011;70450;37.974;23.708;2024-02-23T12:50:45;10.73;;;9.73;;
80217;SDS011;70450;37.974;23.708;2024-02-23T12:53:31;12.50;;;9.88;;
80217;SDS011;70450;37.974;23.708;2024-02-23T12:56:00;15.00;;;9.30;;
80217;SDS011;70450;37.974;23.708;2024-02-23T12:58:27;11.52;;;10.30;;
80217;SDS011;70450;37.974;23.708;2024-02-23T13:00:57;13.30;;;9.57;;
80217;SDS011;70450;37.974;23.708;2024-02-23T13:03:24;14.50;;;9.52;;
80217;SDS011;70450;37.974;23.708;2024-02-23T13:05:55;10.52;;;9.27;;
80217;SDS011;70450;37.974;23.708;2024-02-23T13:08:22;14.40;;;10.57;;
80217;SDS011;70450;37.974;23.708;2024-02-23T13:10:49;16.92;;;11.27;;
80217;SDS011;70450;37.974;23.708;2024-02-23T13:13:17;14.57;;;10.43;;
80217;SDS011;70450;37.974;23.708;2024-02-23T13:15:44;11.45;;;10.27;;
80217;SDS011;70450;37.974;23.708;2024-02-23T13:18:11;11.82;;;8.55;;
80217;SDS011;70450;37.974;23.708;2024-02-23T13:20:37;11.82;;;8.52;;
80217;SDS011;70450;37.974;23.708;2024-02-23T13:23:04;18.38;;;15.10;;
80217;SDS011;70450;37.974;23.708;2024-02-23T13:25:37;15.75;;;9.73;;
80217;SDS011;70450;37.974;23.708;2024-02-23T13:28:06;11.82;;;9.45;;
80217;SDS011;70450;37.974;23.708;2024-02-23T13:30:33;11.43;;;8.90;;
80217;SDS011;70450;37.974;23.708;2024-02-23T13:33:00;16.52;;;9.80;;
80217;SDS011;70450;37.974;23.708;2024-02-23T13:35:27;24.15;;;16.55;;
80217;SDS011;70450;37.974;23.708;2024-02-23T13:37:53;14.02;;;8.93;;
80217;SDS011;70450;37.974;23.708;2024-02-23T13:40:20;13.10;;;9.32;;
80217;SDS011;70450;37.974;23.708;2024-02-23T13:42:46;13.82;;;8.35;;
80217;SDS011;70450;37.974;23.708;2024-02-23T13:45:16;12.65;;;8.85;;
80217;SDS011;70450;37.974;23.708;2024-02-23T13:47:43;12.55;;;8.07;;
80217;SDS011;70450;37.974;23.708;2024-02-23T13:50:20;11.30;;;6.90;;
80217;SDS011;70450;37.974;23.708;2024-02-23T13:52:47;12.73;;;8.77;;
80217;SDS011;70450;37.974;23.708;2024-02-23T13:55:14;19.05;;;9.15;;
80217;SDS011;70450;37.974;23.708;2024-02-23T13:57:40;14.02;;;8.52;;
80217;SDS011;70450;37.974;23.708;2024-02-23T14:00:06;10.30;;;7.85;;
80217;SDS011;70450;37.974;23.708;2024-02-23T14:02:38;9.52;;;7.18;;
80217;SDS011;70450;37.974;23.708;2024-02-23T14:05:06;16.02;;;9.50;;
80217;SDS011;70450;37.974;23.708;2024-02-23T14:07:32;25.77;;;17.60;;
80217;SDS011;70450;37.974;23.708;2024-02-23T14:09:59;8.60;;;7.65;;
80217;SDS011;70450;37.974;23.708;2024-02-23T14:12:25;12.98;;;8.88;;